sensor_id;sensor_type;location;lat;lon;timestamp;pressure;altitude;pressure_sealevel;temperature;humidity
63019;BME280;49105;46.046;10.760;2023-11-21T00:00:52;95084.91;;;3.85;82.98
63019;BME280;49105;46.046;10.760;2023-11-21T00:03:18;95078.09;;;3.84;83.27
63019;BME280;49105;46.046;10.760;2023-11-21T00:05:44;95073.47;;;3.91;83.29
63019;BME280;49105;46.046;10.760;2023-11-21T00:08:10;95074.06;;;3.98;83.11
63019;BME280;49105;46.046;10.760;2023-11-21T00:10:36;95068.34;;;4.02;82.95
63019;BME280;49105;46.046;10.760;2023-11-21T00:13:03;95075.94;;;4.03;82.89
63019;BME280;49105;46.046;10.760;2023-11-21T00:15:30;95065.63;;;3.91;82.71
63019;BME280;49105;46.046;10.760;2023-11-21T00:17:56;95073.38;;;3.86;82.90
63019;BME280;49105;46.046;10.760;2023-11-21T00:20:22;95072.59;;;3.86;83.01
63019;BME280;49105;46.046;10.760;2023-11-21T00:22:48;95072.84;;;3.84;82.70
63019;BME280;49105;46.046;10.760;2023-11-21T00:25:15;95065.41;;;3.76;82.84
63019;BME280;49105;46.046;10.760;2023-11-21T00:27:42;95071.91;;;3.73;83.10
63019;BME280;49105;46.046;10.760;2023-11-21T00:30:08;95076.94;;;3.75;83.22
63019;BME280;49105;46.046;10.760;2023-11-21T00:32:38;95077.47;;;3.77;83.08
63019;BME280;49105;46.046;10.760;2023-11-21T00:35:04;95077.00;;;3.80;83.22
63019;BME280;49105;46.046;10.760;2023-11-21T00:37:29;95075.59;;;3.72;82.97
63019;BME280;49105;46.046;10.760;2023-11-21T00:39:57;95072.84;;;3.62;83.46
63019;BME280;49105;46.046;10.760;2023-11-21T00:42:22;95075.69;;;3.61;83.75
63019;BME280;49105;46.046;10.760;2023-11-21T00:44:48;95077.53;;;3.60;83.50
63019;BME280;49105;46.046;10.760;2023-11-21T00:47:14;95081.66;;;3.56;83.80
63019;BME280;49105;46.046;10.760;2023-11-21T00:49:40;95092.38;;;3.55;83.68
63019;BME280;49105;46.046;10.760;2023-11-21T00:52:06;95084.53;;;3.55;83.94
63019;BME280;49105;46.046;10.760;2023-11-21T00:54:32;95077.69;;;3.54;83.91
63019;BME280;49105;46.046;10.760;2023-11-21T00:56:59;95073.50;;;3.53;84.02
63019;BME280;49105;46.046;10.760;2023-11-21T00:59:24;95071.44;;;3.55;84.00
63019;BME280;49105;46.046;10.760;2023-11-21T01:01:50;95076.16;;;3.58;83.96
63019;BME280;49105;46.046;10.760;2023-11-21T01:04:16;95085.53;;;3.54;84.14
63019;BME280;49105;46.046;10.760;2023-11-21T01:06:42;95077.47;;;3.55;84.11
63019;BME280;49105;46.046;10.760;2023-11-21T01:09:08;95078.25;;;3.56;83.74
63019;BME280;49105;46.046;10.760;2023-11-21T01:11:34;95082.28;;;3.63;83.79
63019;BME280;49105;46.046;10.760;2023-11-21T01:14:02;95079.97;;;3.67;83.94
63019;BME280;49105;46.046;10.760;2023-11-21T01:16:30;95083.91;;;3.69;83.74
63019;BME280;49105;46.046;10.760;2023-11-21T01:18:58;95077.94;;;3.74;83.76
63019;BME280;49105;46.046;10.760;2023-11-21T01:21:24;95074.31;;;3.75;83.66
63019;BME280;49105;46.046;10.760;2023-11-21T01:23:50;95074.91;;;3.82;83.48
63019;BME280;49105;46.046;10.760;2023-11-21T01:26:15;95080.22;;;3.87;83.94
63019;BME280;49105;46.046;10.760;2023-11-21T01:28:41;95076.56;;;3.88;83.26
63019;BME280;49105;46.046;10.760;2023-11-21T01:31:07;95071.56;;;3.65;83.00
63019;BME280;49105;46.046;10.760;2023-11-21T01:33:33;95079.75;;;3.52;83.44
63019;BME280;49105;46.046;10.760;2023-11-21T01:35:59;95078.34;;;3.44;83.71
63019;BME280;49105;46.046;10.760;2023-11-21T01:38:25;95067.88;;;3.44;83.89
63019;BME280;49105;46.046;10.760;2023-11-21T01:40:51;95073.97;;;3.49;83.61
63019;BME280;49105;46.046;10.760;2023-11-21T01:43:18;95077.88;;;3.47;83.60
63019;BME280;49105;46.046;10.760;2023-11-21T01:45:44;95070.81;;;3.47;83.97
63019;BME280;49105;46.046;10.760;2023-11-21T01:48:10;95061.59;;;3.45;83.40
63019;BME280;49105;46.046;10.760;2023-11-21T01:50:38;95061.53;;;3.40;83.32
63019;BME280;49105;46.046;10.760;2023-11-21T01:53:05;95054.31;;;3.25;83.36
63019;BME280;49105;46.046;10.760;2023-11-21T01:55:32;95050.28;;;3.17;83.76
63019;BME280;49105;46.046;10.760;2023-11-21T01:57:59;95048.44;;;3.18;83.88
63019;BME280;49105;46.046;10.760;2023-11-21T02:00:25;95042.50;;;3.22;84.03
63019;BME280;49105;46.046;10.760;2023-11-21T02:02:53;95048.91;;;3.15;83.56
63019;BME280;49105;46.046;10.760;2023-11-21T02:05:19;95051.47;;;3.10;83.63
63019;BME280;49105;46.046;10.760;2023-11-21T02:07:47;95056.69;;;3.10;84.02
63019;BME280;49105;46.046;10.760;2023-11-21T02:10:17;95060.09;;;3.10;83.53
63019;BME280;49105;46.046;10.760;2023-11-21T02:12:48;95047.50;;;3.07;83.67
63019;BME280;49105;46.046;10.760;2023-11-21T02:15:16;95043.56;;;3.05;83.82
63019;BME280;49105;46.046;10.760;2023-11-21T02:17:46;95041.72;;;3.05;83.52
63019;BME280;49105;46.046;10.760;2023-11-21T02:20:19;95041.41;;;3.02;83.86
63019;BME280;49105;46.046;10.760;2023-11-21T02:25:15;95036.72;;;2.87;83.81
63019;BME280;49105;46.046;10.760;2023-11-21T02:27:42;95029.38;;;2.84;84.05
63019;BME280;49105;46.046;10.760;2023-11-21T02:30:08;95028.09;;;2.86;84.26
63019;BME280;49105;46.046;10.760;2023-11-21T02:32:37;95031.56;;;2.92;83.83
63019;BME280;49105;46.046;10.760;2023-11-21T02:35:03;95018.44;;;2.87;83.45
63019;BME280;49105;46.046;10.760;2023-11-21T02:37:33;95018.91;;;2.84;83.54
63019;BME280;49105;46.046;10.760;2023-11-21T02:39:58;95018.38;;;2.82;83.81
63019;BME280;49105;46.046;10.760;2023-11-21T02:42:24;95016.53;;;2.82;83.75
63019;BME280;49105;46.046;10.760;2023-11-21T02:44:50;95012.44;;;2.86;83.74
63019;BME280;49105;46.046;10.760;2023-11-21T02:47:17;95005.84;;;2.84;83.57
63019;BME280;49105;46.046;10.760;2023-11-21T02:49:43;95009.19;;;2.79;83.30
63019;BME280;49105;46.046;10.760;2023-11-21T02:52:09;95002.84;;;2.75;83.60
63019;BME280;49105;46.046;10.760;2023-11-21T02:54:35;95007.47;;;2.68;83.66
63019;BME280;49105;46.046;10.760;2023-11-21T02:57:02;94999.63;;;2.68;83.72
63019;BME280;49105;46.046;10.760;2023-11-21T02:59:27;94999.31;;;2.64;83.74
63019;BME280;49105;46.046;10.760;2023-11-21T03:01:53;94998.50;;;2.64;83.90
63019;BME280;49105;46.046;10.760;2023-11-21T03:04:19;94990.69;;;2.64;83.98
63019;BME280;49105;46.046;10.760;2023-11-21T03:06:46;94986.00;;;2.66;83.52
63019;BME280;49105;46.046;10.760;2023-11-21T03:09:11;94971.03;;;2.61;83.95
63019;BME280;49105;46.046;10.760;2023-11-21T03:11:41;94973.78;;;2.55;84.05
63019;BME280;49105;46.046;10.760;2023-11-21T03:14:07;94980.31;;;2.35;83.73
63019;BME280;49105;46.046;10.760;2023-11-21T03:16:33;94981.69;;;2.26;84.34
63019;BME280;49105;46.046;10.760;2023-11-21T03:18:59;94977.50;;;2.25;84.36
63019;BME280;49105;46.046;10.760;2023-11-21T03:21:25;94978.88;;;2.28;84.48
63019;BME280;49105;46.046;10.760;2023-11-21T03:23:51;94970.88;;;2.34;84.01
63019;BME280;49105;46.046;10.760;2023-11-21T03:26:18;94974.13;;;2.41;83.99
63019;BME280;49105;46.046;10.760;2023-11-21T03:28:43;94977.75;;;2.40;84.07
63019;BME280;49105;46.046;10.760;2023-11-21T03:31:09;94968.25;;;2.34;83.98
63019;BME280;49105;46.046;10.760;2023-11-21T03:33:36;94967.00;;;2.20;83.64
63019;BME280;49105;46.046;10.760;2023-11-21T03:36:01;94967.28;;;2.07;84.27
63019;BME280;49105;46.046;10.760;2023-11-21T03:38:27;94959.69;;;2.05;84.96
63019;BME280;49105;46.046;10.760;2023-11-21T03:40:53;94964.44;;;2.08;84.64
63019;BME280;49105;46.046;10.760;2023-11-21T03:43:19;94968.72;;;2.14;84.41
63019;BME280;49105;46.046;10.760;2023-11-21T03:45:45;94973.72;;;2.16;84.85
63019;BME280;49105;46.046;10.760;2023-11-21T03:48:13;94968.25;;;2.17;84.60
63019;BME280;49105;46.046;10.760;2023-11-21T03:50:38;94963.66;;;2.24;84.85
63019;BME280;49105;46.046;10.760;2023-11-21T03:53:05;94970.31;;;2.32;84.46
63019;BME280;49105;46.046;10.760;2023-11-21T03:55:31;94962.56;;;2.37;84.18
63019;BME280;49105;46.046;10.760;2023-11-21T03:57:58;94963.13;;;2.39;84.34
63019;BME280;49105;46.046;10.760;2023-11-21T04:00:24;94965.75;;;2.39;84.42
63019;BME280;49105;46.046;10.760;2023-11-21T04:02:50;94964.78;;;2.45;84.67
63019;BME280;49105;46.046;10.760;2023-11-21T04:05:17;94961.78;;;2.54;84.35
63019;BME280;49105;46.046;10.760;2023-11-21T04:07:43;94975.53;;;2.32;83.46
63019;BME280;49105;46.046;10.760;2023-11-21T04:10:10;94962.53;;;2.04;83.81
63019;BME280;49105;46.046;10.760;2023-11-21T04:12:38;94970.75;;;1.95;84.50
63019;BME280;49105;46.046;10.760;2023-11-21T04:15:04;94974.00;;;2.03;84.50
63019;BME280;49105;46.046;10.760;2023-11-21T04:17:30;94974.34;;;2.06;84.61
63019;BME280;49105;46.046;10.760;2023-11-21T04:19:56;94973.06;;;2.09;84.73
63019;BME280;49105;46.046;10.760;2023-11-21T04:22:22;94976.31;;;2.16;84.12
63019;BME280;49105;46.046;10.760;2023-11-21T04:24:47;94971.09;;;2.16;83.97
63019;BME280;49105;46.046;10.760;2023-11-21T04:27:13;94972.22;;;2.20;83.89
63019;BME280;49105;46.046;10.760;2023-11-21T04:29:39;94961.84;;;2.25;84.07
63019;BME280;49105;46.046;10.760;2023-11-21T04:32:06;94965.50;;;2.24;83.80
63019;BME280;49105;46.046;10.760;2023-11-21T04:34:33;94964.75;;;2.12;83.72
63019;BME280;49105;46.046;10.760;2023-11-21T04:36:58;94964.13;;;2.05;84.21
63019;BME280;49105;46.046;10.760;2023-11-21T04:39:25;94959.34;;;2.02;84.06
63019;BME280;49105;46.046;10.760;2023-11-21T04:41:50;94958.09;;;2.04;84.21
63019;BME280;49105;46.046;10.760;2023-11-21T04:44:16;94961.59;;;2.10;84.51
63019;BME280;49105;46.046;10.760;2023-11-21T04:46:42;94964.31;;;2.15;84.40
63019;BME280;49105;46.046;10.760;2023-11-21T04:49:08;94963.91;;;2.23;84.30
63019;BME280;49105;46.046;10.760;2023-11-21T04:51:34;94970.31;;;2.32;84.05
63019;BME280;49105;46.046;10.760;2023-11-21T04:54:00;94962.56;;;2.37;83.80
63019;BME280;49105;46.046;10.760;2023-11-21T04:56:25;94966.66;;;2.16;83.17
63019;BME280;49105;46.046;10.760;2023-11-21T04:58:51;94979.78;;;2.05;83.63
63019;BME280;49105;46.046;10.760;2023-11-21T05:01:17;94978.13;;;1.98;83.64
63019;BME280;49105;46.046;10.760;2023-11-21T05:03:42;94974.47;;;1.99;84.18
63019;BME280;49105;46.046;10.760;2023-11-21T05:06:11;94978.19;;;2.04;83.72
63019;BME280;49105;46.046;10.760;2023-11-21T05:08:36;94971.94;;;2.05;83.83
63019;BME280;49105;46.046;10.760;2023-11-21T05:11:03;94970.13;;;2.05;83.75
63019;BME280;49105;46.046;10.760;2023-11-21T05:13:29;94973.06;;;2.09;84.29
63019;BME280;49105;46.046;10.760;2023-11-21T05:15:55;94985.78;;;2.05;84.04
63019;BME280;49105;46.046;10.760;2023-11-21T05:18:24;94983.34;;;1.98;84.13
63019;BME280;49105;46.046;10.760;2023-11-21T05:20:52;94977.88;;;2.00;83.97
63019;BME280;49105;46.046;10.760;2023-11-21T05:23:19;94976.69;;;2.08;83.90
63019;BME280;49105;46.046;10.760;2023-11-21T05:25:44;94972.84;;;2.10;84.20
63019;BME280;49105;46.046;10.760;2023-11-21T05:28:11;94986.63;;;2.22;83.66
63019;BME280;49105;46.046;10.760;2023-11-21T05:30:37;94976.00;;;2.29;83.64
63019;BME280;49105;46.046;10.760;2023-11-21T05:33:05;94975.53;;;2.32;83.48
63019;BME280;49105;46.046;10.760;2023-11-21T05:35:31;94969.84;;;2.35;83.74
63019;BME280;49105;46.046;10.760;2023-11-21T05:37:57;94962.09;;;2.40;83.72
63019;BME280;49105;46.046;10.760;2023-11-21T05:40:23;94960.28;;;2.41;83.72
63019;BME280;49105;46.046;10.760;2023-11-21T05:42:48;94959.31;;;2.30;83.29
63019;BME280;49105;46.046;10.760;2023-11-21T05:45:14;94968.88;;;2.24;83.68
63019;BME280;49105;46.046;10.760;2023-11-21T05:47:44;94972.47;;;2.18;83.45
63019;BME280;49105;46.046;10.760;2023-11-21T05:50:12;94967.69;;;2.15;83.73
63019;BME280;49105;46.046;10.760;2023-11-21T05:52:40;94969.03;;;2.18;83.85
63019;BME280;49105;46.046;10.760;2023-11-21T05:55:07;94970.78;;;2.29;83.93
63019;BME280;49105;46.046;10.760;2023-11-21T05:57:37;94973.25;;;2.36;83.39
63019;BME280;49105;46.046;10.760;2023-11-21T06:02:40;94978.28;;;2.26;83.58
63019;BME280;49105;46.046;10.760;2023-11-21T06:05:07;94978.78;;;2.22;83.64
63019;BME280;49105;46.046;10.760;2023-11-21T06:07:33;94977.28;;;2.27;83.32
63019;BME280;49105;46.046;10.760;2023-11-21T06:09:59;94981.69;;;2.26;83.70
63019;BME280;49105;46.046;10.760;2023-11-21T06:12:25;94985.41;;;2.30;83.56
63019;BME280;49105;46.046;10.760;2023-11-21T06:14:50;94979.91;;;2.27;83.22
63019;BME280;49105;46.046;10.760;2023-11-21T06:17:16;94992.38;;;2.24;83.43
63019;BME280;49105;46.046;10.760;2023-11-21T06:19:43;94982.19;;;2.23;83.51
63019;BME280;49105;46.046;10.760;2023-11-21T06:22:10;94978.53;;;2.24;83.43
63019;BME280;49105;46.046;10.760;2023-11-21T06:24:36;94978.84;;;2.11;83.26
63019;BME280;49105;46.046;10.760;2023-11-21T06:27:04;94978.06;;;2.10;83.79
63019;BME280;49105;46.046;10.760;2023-11-21T06:29:30;94978.53;;;2.07;83.42
63019;BME280;49105;46.046;10.760;2023-11-21T06:31:56;94985.69;;;2.00;83.32
63019;BME280;49105;46.046;10.760;2023-11-21T06:34:21;94979.13;;;1.97;83.31
63019;BME280;49105;46.046;10.760;2023-11-21T06:36:48;94971.28;;;1.97;83.36
63019;BME280;49105;46.046;10.760;2023-11-21T06:39:13;94982.63;;;2.03;83.73
63019;BME280;49105;46.046;10.760;2023-11-21T06:41:40;94981.91;;;2.08;83.25
63019;BME280;49105;46.046;10.760;2023-11-21T06:44:05;94971.03;;;2.11;83.62
63019;BME280;49105;46.046;10.760;2023-11-21T06:46:31;94971.81;;;2.11;83.19
63019;BME280;49105;46.046;10.760;2023-11-21T06:48:59;94973.97;;;2.14;83.73
63019;BME280;49105;46.046;10.760;2023-11-21T06:51:24;94967.53;;;2.22;83.23
63019;BME280;49105;46.046;10.760;2023-11-21T06:53:50;94968.63;;;2.26;83.37
63019;BME280;49105;46.046;10.760;2023-11-21T06:56:19;94958.44;;;2.24;83.70
63019;BME280;49105;46.046;10.760;2023-11-21T06:58:45;94968.63;;;2.26;83.88
63019;BME280;49105;46.046;10.760;2023-11-21T07:01:12;94974.34;;;2.23;82.95
63019;BME280;49105;46.046;10.760;2023-11-21T07:03:39;94974.91;;;2.25;83.39
63019;BME280;49105;46.046;10.760;2023-11-21T07:06:05;94978.53;;;2.24;83.54
63019;BME280;49105;46.046;10.760;2023-11-21T07:08:30;94971.91;;;2.33;83.46
63019;BME280;49105;46.046;10.760;2023-11-21T07:10:56;94975.94;;;2.41;83.44
63019;BME280;49105;46.046;10.760;2023-11-21T07:13:22;94974.84;;;2.54;83.15
63019;BME280;49105;46.046;10.760;2023-11-21T07:15:48;94974.50;;;2.50;83.06
63019;BME280;49105;46.046;10.760;2023-11-21T07:18:15;94978.41;;;2.47;83.03
63019;BME280;49105;46.046;10.760;2023-11-21T07:20:40;94971.13;;;2.49;82.96
63019;BME280;49105;46.046;10.760;2023-11-21T07:23:06;94976.41;;;2.55;83.11
63019;BME280;49105;46.046;10.760;2023-11-21T07:25:32;94969.22;;;2.62;82.81
63019;BME280;49105;46.046;10.760;2023-11-21T07:27:59;94970.06;;;2.67;82.73
63019;BME280;49105;46.046;10.760;2023-11-21T07:30:24;94981.22;;;2.63;82.66
63019;BME280;49105;46.046;10.760;2023-11-21T07:32:51;94972.38;;;2.64;82.95
63019;BME280;49105;46.046;10.760;2023-11-21T07:35:17;94971.09;;;2.66;83.10
63019;BME280;49105;46.046;10.760;2023-11-21T07:37:43;94975.59;;;2.71;82.82
63019;BME280;49105;46.046;10.760;2023-11-21T07:40:08;94970.94;;;2.73;82.89
63019;BME280;49105;46.046;10.760;2023-11-21T07:42:36;94970.94;;;2.73;82.61
63019;BME280;49105;46.046;10.760;2023-11-21T07:45:02;94959.78;;;2.78;82.66
63019;BME280;49105;46.046;10.760;2023-11-21T07:47:29;94962.22;;;2.84;82.74
63019;BME280;49105;46.046;10.760;2023-11-21T07:49:54;94962.22;;;2.84;82.71
63019;BME280;49105;46.046;10.760;2023-11-21T07:52:22;94969.66;;;2.76;82.56
63019;BME280;49105;46.046;10.760;2023-11-21T07:54:48;94955.75;;;2.70;82.68
63019;BME280;49105;46.046;10.760;2023-11-21T07:57:13;94956.00;;;2.68;83.08
63019;BME280;49105;46.046;10.760;2023-11-21T07:59:40;94955.03;;;2.74;83.05
63019;BME280;49105;46.046;10.760;2023-11-21T08:02:06;94954.63;;;2.83;83.14
63019;BME280;49105;46.046;10.760;2023-11-21T08:04:33;94953.97;;;2.92;82.98
63019;BME280;49105;46.046;10.760;2023-11-21T08:06:59;94947.78;;;2.98;82.74
63019;BME280;49105;46.046;10.760;2023-11-21T08:09:25;94950.88;;;2.95;82.63
63019;BME280;49105;46.046;10.760;2023-11-21T08:11:51;94938.84;;;2.94;82.66
63019;BME280;49105;46.046;10.760;2023-11-21T08:14:18;94939.41;;;2.96;82.81
63019;BME280;49105;46.046;10.760;2023-11-21T08:16:43;94945.72;;;3.01;82.57
63019;BME280;49105;46.046;10.760;2023-11-21T08:19:10;94946.81;;;3.05;82.57
63019;BME280;49105;46.046;10.760;2023-11-21T08:21:36;94946.41;;;3.13;82.80
63019;BME280;49105;46.046;10.760;2023-11-21T08:24:05;94944.63;;;3.18;82.24
63019;BME280;49105;46.046;10.760;2023-11-21T08:26:31;94941.84;;;3.25;82.04
63019;BME280;49105;46.046;10.760;2023-11-21T08:28:57;94936.13;;;3.28;82.02
63019;BME280;49105;46.046;10.760;2023-11-21T08:31:25;94948.16;;;3.29;81.95
63019;BME280;49105;46.046;10.760;2023-11-21T08:33:51;94946.78;;;3.21;82.18
63019;BME280;49105;46.046;10.760;2023-11-21T08:36:17;94941.72;;;3.15;82.09
63019;BME280;49105;46.046;10.760;2023-11-21T08:38:43;94938.56;;;3.13;82.55
63019;BME280;49105;46.046;10.760;2023-11-21T08:41:09;94940.69;;;3.16;82.70
63019;BME280;49105;46.046;10.760;2023-11-21T08:43:35;94940.75;;;3.21;82.61
63019;BME280;49105;46.046;10.760;2023-11-21T08:46:06;94928.78;;;3.25;82.76
63019;BME280;49105;46.046;10.760;2023-11-21T08:48:32;94940.13;;;3.36;82.66
63019;BME280;49105;46.046;10.760;2023-11-21T08:50:57;94931.03;;;3.38;82.25
63019;BME280;49105;46.046;10.760;2023-11-21T08:53:23;94938.31;;;3.36;82.30
63019;BME280;49105;46.046;10.760;2023-11-21T08:55:51;94927.63;;;3.38;82.47
63019;BME280;49105;46.046;10.760;2023-11-21T08:58:19;94928.31;;;3.33;82.35
63019;BME280;49105;46.046;10.760;2023-11-21T09:00:44;94927.78;;;3.31;82.71
63019;BME280;49105;46.046;10.760;2023-11-21T09:03:11;94932.47;;;3.29;82.82
63019;BME280;49105;46.046;10.760;2023-11-21T09:05:40;94931.97;;;3.32;82.75
63019;BME280;49105;46.046;10.760;2023-11-21T09:08:06;94927.31;;;3.34;82.64
63019;BME280;49105;46.046;10.760;2023-11-21T09:10:33;94937.25;;;3.37;82.64
63019;BME280;49105;46.046;10.760;2023-11-21T09:13:01;94935.22;;;3.39;82.82
63019;BME280;49105;46.046;10.760;2023-11-21T09:15:27;94939.88;;;3.37;82.78
63019;BME280;49105;46.046;10.760;2023-11-21T09:17:53;94933.63;;;3.38;82.95
63019;BME280;49105;46.046;10.760;2023-11-21T09:20:20;94930.34;;;3.48;82.87
63019;BME280;49105;46.046;10.760;2023-11-21T09:22:48;94934.78;;;3.47;82.42
63019;BME280;49105;46.046;10.760;2023-11-21T09:25:14;94935.81;;;3.46;82.52
63019;BME280;49105;46.046;10.760;2023-11-21T09:27:40;94930.34;;;3.48;82.66
63019;BME280;49105;46.046;10.760;2023-11-21T09:30:07;94929.84;;;3.51;82.77
63019;BME280;49105;46.046;10.760;2023-11-21T09:32:37;94932.34;;;3.63;82.65
63019;BME280;49105;46.046;10.760;2023-11-21T09:35:04;94921.91;;;3.68;82.58
63019;BME280;49105;46.046;10.760;2023-11-21T09:37:31;94920.38;;;3.72;82.34
63019;BME280;49105;46.046;10.760;2023-11-21T09:39:56;94925.13;;;3.75;82.25
63019;BME280;49105;46.046;10.760;2023-11-21T09:42:30;94925.44;;;3.79;82.43
63019;BME280;49105;46.046;10.760;2023-11-21T09:45:46;94927.53;;;3.82;82.38
63019;BME280;49105;46.046;10.760;2023-11-21T09:48:05;94922.56;;;3.80;82.04
63019;BME280;49105;46.046;10.760;2023-11-21T09:50:32;94924.13;;;3.81;82.21
63019;BME280;49105;46.046;10.760;2023-11-21T09:55:27;94915.75;;;3.79;82.34
63019;BME280;49105;46.046;10.760;2023-11-21T09:57:57;94915.94;;;3.72;82.34
63019;BME280;49105;46.046;10.760;2023-11-21T10:00:23;94918.03;;;3.70;82.71
63019;BME280;49105;46.046;10.760;2023-11-21T10:02:50;94914.22;;;3.83;83.33
63019;BME280;49105;46.046;10.760;2023-11-21T10:05:18;94908.53;;;3.91;82.75
63019;BME280;49105;46.046;10.760;2023-11-21T10:07:49;94899.63;;;3.92;82.47
63019;BME280;49105;46.046;10.760;2023-11-21T10:10:17;94898.06;;;3.91;82.70
63019;BME280;49105;46.046;10.760;2023-11-21T10:12:47;94890.97;;;3.87;82.49
63019;BME280;49105;46.046;10.760;2023-11-21T10:15:16;94889.63;;;3.84;82.35
63019;BME280;49105;46.046;10.760;2023-11-21T10:17:42;94898.25;;;3.85;82.59
63019;BME280;49105;46.046;10.760;2023-11-21T10:20:14;94884.34;;;3.79;82.94
63019;BME280;49105;46.046;10.760;2023-11-21T10:22:41;94890.38;;;3.80;82.94
63019;BME280;49105;46.046;10.760;2023-11-21T10:25:10;94880.44;;;3.82;82.90
63019;BME280;49105;46.046;10.760;2023-11-21T10:27:37;94879.91;;;3.80;83.02
63019;BME280;49105;46.046;10.760;2023-11-21T10:30:05;94869.13;;;3.76;83.12
63019;BME280;49105;46.046;10.760;2023-11-21T10:32:30;94878.03;;;3.75;83.12
63019;BME280;49105;46.046;10.760;2023-11-21T10:34:59;94878.31;;;3.79;83.19
63019;BME280;49105;46.046;10.760;2023-11-21T10:37:26;94875.97;;;3.82;83.38
63019;BME280;49105;46.046;10.760;2023-11-21T10:40:01;94874.44;;;3.86;83.39
63019;BME280;49105;46.046;10.760;2023-11-21T10:42:27;94877.34;;;3.90;83.01
63019;BME280;49105;46.046;10.760;2023-11-21T10:44:54;94877.06;;;3.86;83.18
63019;BME280;49105;46.046;10.760;2023-11-21T10:47:20;94865.28;;;3.84;83.46
63019;BME280;49105;46.046;10.760;2023-11-21T10:49:51;94865.06;;;3.90;83.55
63019;BME280;49105;46.046;10.760;2023-11-21T10:52:19;94863.03;;;3.97;83.62
63019;BME280;49105;46.046;10.760;2023-11-21T10:54:46;94865.75;;;4.08;83.56
63019;BME280;49105;46.046;10.760;2023-11-21T10:57:15;94863.19;;;4.18;83.46
63019;BME280;49105;46.046;10.760;2023-11-21T10:59:46;94851.72;;;4.24;83.51
63019;BME280;49105;46.046;10.760;2023-11-21T11:02:24;94851.75;;;4.29;83.43
63019;BME280;49105;46.046;10.760;2023-11-21T11:04:58;94842.91;;;4.40;83.17
63019;BME280;49105;46.046;10.760;2023-11-21T11:07:27;94840.09;;;4.52;83.38
63019;BME280;49105;46.046;10.760;2023-11-21T11:09:58;94840.69;;;4.64;82.97
63019;BME280;49105;46.046;10.760;2023-11-21T11:12:24;94833.13;;;4.73;82.69
63019;BME280;49105;46.046;10.760;2023-11-21T11:14:51;94847.84;;;4.79;82.30
63019;BME280;49105;46.046;10.760;2023-11-21T11:17:19;94835.00;;;4.83;82.46
63019;BME280;49105;46.046;10.760;2023-11-21T11:19:46;94828.97;;;4.82;82.06
63019;BME280;49105;46.046;10.760;2023-11-21T11:33:21;94825.00;;;4.75;82.21
63019;BME280;49105;46.046;10.760;2023-11-21T11:38:21;94818.22;;;4.79;81.90
63019;BME280;49105;46.046;10.760;2023-11-21T11:40:52;94817.44;;;4.83;81.99
63019;BME280;49105;46.046;10.760;2023-11-21T11:43:26;94814.31;;;4.86;81.64
63019;BME280;49105;46.046;10.760;2023-11-21T11:45:55;94811.94;;;4.85;81.46
63019;BME280;49105;46.046;10.760;2023-11-21T11:48:22;94814.81;;;4.83;81.57
63019;BME280;49105;46.046;10.760;2023-11-21T11:51:04;94813.53;;;4.86;81.30
63019;BME280;49105;46.046;10.760;2023-11-21T11:53:37;94807.53;;;4.90;81.20
63019;BME280;49105;46.046;10.760;2023-11-21T11:56:25;94805.97;;;4.94;80.99
63019;BME280;49105;46.046;10.760;2023-11-21T11:58:52;94802.03;;;4.97;80.96
63019;BME280;49105;46.046;10.760;2023-11-21T12:01:19;94804.13;;;5.00;80.99
63019;BME280;49105;46.046;10.760;2023-11-21T12:06:36;94796.81;;;5.02;80.94
63019;BME280;49105;46.046;10.760;2023-11-21T12:09:02;94802.31;;;5.06;80.92
63019;BME280;49105;46.046;10.760;2023-11-21T12:11:48;94786.06;;;5.09;80.86
63019;BME280;49105;46.046;10.760;2023-11-21T12:14:15;94787.41;;;5.16;80.86
63019;BME280;49105;46.046;10.760;2023-11-21T12:16:40;94788.72;;;5.19;80.32
63019;BME280;49105;46.046;10.760;2023-11-21T12:19:08;94781.38;;;5.16;80.57
63019;BME280;49105;46.046;10.760;2023-11-21T12:21:33;94782.16;;;5.16;80.89
63019;BME280;49105;46.046;10.760;2023-11-21T12:23:59;94787.94;;;5.18;80.98
63019;BME280;49105;46.046;10.760;2023-11-21T12:26:25;94779.28;;;5.23;80.82
63019;BME280;49105;46.046;10.760;2023-11-21T12:28:54;94778.78;;;5.31;81.51
63019;BME280;49105;46.046;10.760;2023-11-21T12:31:24;94784.56;;;5.43;81.47
63019;BME280;49105;46.046;10.760;2023-11-21T12:33:51;94780.66;;;5.56;81.39
63019;BME280;49105;46.046;10.760;2023-11-21T12:36:17;94784.31;;;5.70;80.94
63019;BME280;49105;46.046;10.760;2023-11-21T12:38:43;94784.56;;;5.79;81.05
63019;BME280;49105;46.046;10.760;2023-11-21T12:41:09;94780.91;;;5.85;80.97
63019;BME280;49105;46.046;10.760;2023-11-21T12:43:38;94771.47;;;5.94;80.50
63019;BME280;49105;46.046;10.760;2023-11-21T12:46:08;94770.66;;;6.04;80.61
63019;BME280;49105;46.046;10.760;2023-11-21T12:48:38;94774.88;;;6.15;80.39
63019;BME280;49105;46.046;10.760;2023-11-21T12:51:06;94771.72;;;6.18;79.93
63019;BME280;49105;46.046;10.760;2023-11-21T12:53:32;94768.03;;;6.14;79.75
63019;BME280;49105;46.046;10.760;2023-11-21T12:56:05;94762.00;;;6.14;79.82
63019;BME280;49105;46.046;10.760;2023-11-21T12:58:31;94762.50;;;6.16;79.55
63019;BME280;49105;46.046;10.760;2023-11-21T13:00:59;94757.53;;;6.19;79.42
63019;BME280;49105;46.046;10.760;2023-11-21T13:03:25;94754.88;;;6.25;79.51
63019;BME280;49105;46.046;10.760;2023-11-21T13:05:52;94758.28;;;6.25;79.04
63019;BME280;49105;46.046;10.760;2023-11-21T13:08:21;94767.75;;;6.26;79.13
63019;BME280;49105;46.046;10.760;2023-11-21T13:10:54;94760.13;;;6.25;79.06
63019;BME280;49105;46.046;10.760;2023-11-21T13:13:22;94767.22;;;6.24;78.61
63019;BME280;49105;46.046;10.760;2023-11-21T13:15:55;94759.63;;;6.22;78.68
63019;BME280;49105;46.046;10.760;2023-11-21T13:18:28;94765.13;;;6.26;78.70
63019;BME280;49105;46.046;10.760;2023-11-21T13:20:59;94767.50;;;6.28;78.58
63019;BME280;49105;46.046;10.760;2023-11-21T13:23:25;94757.75;;;6.28;78.32